Gracey, Kentucky
Current Conditions -  °F | °C
As of 1:58 AM on Friday 31 Oct 2014 (Local Time) from KHOP Reporting Station
Haze Haze  
Wind Chill: 50°   Ceiling: 6500
Heat Index: 50°   Visibility: 6mi
Dew Point: 49°   Wind: 0mph
Humidity: 94%   Direction: NA
Pressure: 30"   Gusts: NA
Location:  36.88°N, 87.66°W
Report Text: KHOP 310658Z 00000KT 6SM BR OVC065 10/09 A3000 RMK AO2A SLP160 T01020092
Loading
Personal Weather Stations






























Interactive Weather Map
Tropical Storm Tracking
New forecast layout! Learn more

10-Day Weather Forecast

Advertisements
Track Severe Weather on mobile